Terminal Aerodrome Forecast
Issued by NWS

Home | Current Version | Previous Version | Text Only | Print | Product List | Glossary On
Versions: 1 2 3 4 5 6 7 8 9 10 11 12
000
FTUS46 KOTX 171720
TAFPUW
TAF
KPUW 171720Z 1718/1818 08006KT P6SM SCT120 SCT200 WS020/24030KT
     FM171900 21018G28KT P6SM SCT150
     FM172100 22026G37KT 6SM HZ SCT120
     FM180400 25005KT P6SM BKN250=

USA.gov is the U.S. government's official web portal to all federal, state and local government web resources and services.